createdAt,value
2016-06-13T00:00:24.809Z,16.79
2016-06-13T00:01:30.797Z,16.84
2016-06-13T00:02:30.738Z,16.8
2016-06-13T00:03:24.677Z,16.77
2016-06-13T00:04:27.633Z,16.79
2016-06-13T00:05:24.778Z,16.8
2016-06-13T00:06:24.547Z,16.77
2016-06-13T00:07:24.487Z,16.86
2016-06-13T00:08:24.458Z,16.83
2016-06-13T00:09:27.618Z,16.82
2016-06-13T00:10:24.934Z,16.83
2016-06-13T00:11:24.546Z,16.83
2016-06-13T00:12:27.268Z,16.86
2016-06-13T00:13:24.428Z,16.86
2016-06-13T00:14:27.180Z,16.86
2016-06-13T00:15:24.121Z,16.86
2016-06-13T00:16:24.295Z,16.86
2016-06-13T00:17:24.049Z,16.92
2016-06-13T00:18:24.037Z,16.94
2016-06-13T00:19:23.929Z,16.92
2016-06-13T00:20:23.902Z,16.87
2016-06-13T00:21:23.858Z,16.92
2016-06-13T00:22:24.049Z,16.89
2016-06-13T00:23:23.755Z,16.99
2016-06-13T00:24:23.712Z,17.01
2016-06-13T00:25:27.042Z,16.97
2016-06-13T00:26:26.748Z,17.01
2016-06-13T00:27:23.595Z,16.97
2016-06-13T00:28:26.536Z,16.89
2016-06-13T00:29:23.711Z,17.01
2016-06-13T00:30:26.651Z,17.01
2016-06-13T00:31:26.435Z,16.98
2016-06-13T00:32:23.408Z,16.95
2016-06-13T00:33:23.505Z,16.94
2016-06-13T00:34:26.289Z,16.98
2016-06-13T00:35:23.198Z,16.86
2016-06-13T00:36:23.154Z,16.84
2016-06-13T00:37:26.110Z,16.83
2016-06-13T00:38:23.067Z,16.86
2016-06-13T00:39:23.023Z,16.84
2016-06-13T00:40:22.980Z,16.76
2016-06-13T00:41:25.966Z,16.87
2016-06-13T00:42:22.891Z,16.77
2016-06-13T00:43:22.864Z,16.77
2016-06-13T00:44:23.007Z,16.8
2016-06-13T00:45:22.775Z,16.82
2016-06-13T00:46:22.701Z,16.84
2016-06-13T00:47:22.734Z,16.83
2016-06-13T00:48:22.629Z,16.82
2016-06-13T00:49:25.522Z,16.84
2016-06-13T00:50:22.713Z,16.86
2016-06-13T00:51:25.482Z,16.84
2016-06-13T00:52:22.422Z,16.82
2016-06-13T00:53:22.378Z,16.89
2016-06-13T00:54:22.351Z,16.83
2016-06-13T00:55:25.322Z,16.86
2016-06-13T00:56:22.435Z,16.87
2016-06-13T00:57:22.204Z,16.83
2016-06-13T00:58:22.222Z,16.83
2016-06-13T00:59:22.100Z,16.83
2016-06-13T01:00:22.056Z,16.82
2016-06-13T01:01:25.013Z,16.79
2016-06-13T01:02:21.828Z,16.77
2016-06-13T01:03:21.925Z,16.76
2016-06-13T01:04:21.943Z,16.83
2016-06-13T01:05:21.666Z,16.77
2016-06-13T01:06:21.621Z,16.87
2016-06-13T01:07:21.734Z,16.86
2016-06-13T01:08:21.691Z,16.84
2016-06-13T01:09:21.833Z,16.86
2016-06-13T01:10:21.586Z,16.82
2016-06-13T01:11:21.480Z,16.77
2016-06-13T01:12:21.281Z,16.77
2016-06-13T01:13:21.331Z,16.74
2016-06-13T01:14:33.364Z,16.84
2016-06-13T01:15:24.212Z,16.84
2016-06-13T01:16:24.324Z,16.79
2016-06-13T01:17:21.343Z,16.76
2016-06-13T01:18:21.299Z,16.79
2016-06-13T01:19:21.177Z,16.8
2016-06-13T01:20:21.133Z,16.77
2016-06-13T01:21:24.136Z,16.83
2016-06-13T01:22:21.046Z,16.83
2016-06-13T01:23:21.393Z,16.82
2016-06-13T01:24:21.129Z,16.89
2016-06-13T01:25:20.898Z,16.87
2016-06-13T01:27:26.811Z,16.83
2016-06-13T01:28:23.783Z,16.83
2016-06-13T01:29:20.927Z,16.82
2016-06-13T01:30:20.664Z,16.8
2016-06-13T01:31:23.855Z,16.86
2016-06-13T01:32:20.592Z,16.79
2016-06-13T01:33:23.376Z,16.77
2016-06-13T01:34:23.505Z,16.8
2016-06-13T01:35:20.429Z,16.65
2016-06-13T01:36:23.416Z,16.79
2016-06-13T01:37:23.342Z,16.86
2016-06-13T01:38:20.330Z,16.89
2016-06-13T01:39:20.270Z,16.76
2016-06-13T01:40:23.241Z,16.83
2016-06-13T01:41:23.761Z,16.82
2016-06-13T01:42:20.123Z,16.79
2016-06-13T01:43:26.126Z,16.86
2016-06-13T01:44:23.051Z,16.77
2016-06-13T01:45:19.977Z,16.8
2016-06-13T01:46:22.963Z,16.79
2016-06-13T01:47:19.904Z,16.77
2016-06-13T01:48:20.078Z,16.73
2016-06-13T01:49:19.847Z,16.66
2016-06-13T01:50:20.007Z,16.66
2016-06-13T01:51:20.119Z,16.72
2016-06-13T01:52:19.669Z,16.64
2016-06-13T01:53:22.625Z,16.66
2016-06-13T01:54:19.566Z,16.65
2016-06-13T01:55:19.365Z,16.66
2016-06-13T01:56:19.322Z,16.61
2016-06-13T01:57:19.700Z,16.72
2016-06-13T01:58:19.484Z,16.66
2016-06-13T01:59:19.472Z,16.59
2016-06-13T02:00:22.490Z,16.59
2016-06-13T02:01:19.244Z,16.61
2016-06-13T02:02:19.418Z,16.72
2016-06-13T02:03:22.171Z,16.59
2016-06-13T02:04:20.019Z,16.57
2016-06-13T02:05:22.052Z,16.64
2016-06-13T02:06:19.009Z,16.59
2016-06-13T02:07:18.966Z,16.65
2016-06-13T02:08:19.139Z,16.55
2016-06-13T02:09:19.534Z,16.59
2016-06-13T02:10:18.834Z,16.57
2016-06-13T02:11:18.837Z,16.54
2016-06-13T02:12:18.746Z,16.54
2016-06-13T02:13:18.687Z,16.57
2016-06-13T02:14:18.643Z,16.55
2016-06-13T02:15:27.803Z,16.58
2016-06-13T02:16:21.633Z,16.57
2016-06-13T02:17:18.714Z,16.57
2016-06-13T02:18:18.467Z,16.61
2016-06-13T02:19:21.424Z,16.58
2016-06-13T02:20:18.349Z,16.55
2016-06-13T02:21:18.321Z,16.62
2016-06-13T02:22:18.558Z,16.61
2016-06-13T02:23:21.249Z,16.51
2016-06-13T02:24:24.236Z,16.58
2016-06-13T02:25:18.130Z,16.65
2016-06-13T02:26:18.086Z,16.57
2016-06-13T02:27:18.027Z,16.59
2016-06-13T02:28:21.014Z,16.54
2016-06-13T02:29:17.955Z,16.58
2016-06-13T02:30:23.911Z,16.58
2016-06-13T02:31:20.868Z,16.61
2016-06-13T02:32:20.824Z,16.65
2016-06-13T02:33:17.952Z,16.64
2016-06-13T02:34:20.923Z,16.59
2016-06-13T02:35:17.880Z,16.58
2016-06-13T02:36:17.836Z,16.66
2016-06-13T02:37:17.776Z,16.61
2016-06-13T02:38:17.545Z,16.64
2016-06-13T02:39:17.485Z,16.66
2016-06-13T02:40:17.520Z,16.73
2016-06-13T02:41:17.413Z,16.76
2016-06-13T02:42:17.463Z,16.77
2016-06-13T02:43:17.311Z,16.76
2016-06-13T02:44:17.345Z,16.74
2016-06-13T02:45:17.207Z,16.8
2016-06-13T02:46:17.367Z,16.77
2016-06-13T02:47:17.120Z,16.82
2016-06-13T02:48:23.076Z,16.79
2016-06-13T02:49:17.031Z,16.84
2016-06-13T02:50:17.222Z,16.82
2016-06-13T02:51:16.929Z,16.77
2016-06-13T02:52:19.932Z,16.8
2016-06-13T02:53:16.857Z,16.79
2016-06-13T02:54:19.797Z,16.74
2016-06-13T02:55:16.739Z,16.77
2016-06-13T02:56:19.709Z,16.66
2016-06-13T02:57:22.681Z,16.82
2016-06-13T02:58:19.607Z,16.83
2016-06-13T02:59:16.579Z,16.68
2016-06-13T03:00:19.535Z,16.77
2016-06-13T03:01:19.865Z,16.73
2016-06-13T03:02:19.431Z,16.86
2016-06-13T03:03:19.419Z,16.77
2016-06-13T03:04:16.328Z,16.72
2016-06-13T03:05:16.284Z,16.74
2016-06-13T03:06:16.240Z,16.72
2016-06-13T03:07:16.196Z,16.72
2016-06-13T03:08:19.138Z,16.69
2016-06-13T03:09:19.124Z,16.73
2016-06-13T03:10:16.049Z,16.74
2016-06-13T03:11:15.866Z,16.66
2016-06-13T03:12:18.962Z,16.62
2016-06-13T03:13:16.324Z,16.68
2016-06-13T03:14:15.843Z,16.73
2016-06-13T03:15:15.815Z,16.65
2016-06-13T03:16:21.802Z,16.68
2016-06-13T03:17:18.931Z,16.73
2016-06-13T03:18:18.684Z,16.68
2016-06-13T03:19:18.843Z,16.64
2016-06-13T03:20:15.596Z,16.62
2016-06-13T03:21:15.553Z,16.65
2016-06-13T03:22:15.508Z,16.61
2016-06-13T03:23:15.652Z,16.62
2016-06-13T03:24:15.405Z,16.66
2016-06-13T03:25:18.206Z,16.58
2016-06-13T03:26:15.754Z,16.65
2016-06-13T03:27:15.873Z,16.61
2016-06-13T03:28:15.277Z,16.58
2016-06-13T03:29:15.257Z,16.66
2016-06-13T03:30:15.270Z,16.58
2016-06-13T03:31:15.266Z,16.59
2016-06-13T03:32:18.265Z,16.64
2016-06-13T03:33:15.203Z,16.65
2016-06-13T03:34:15.267Z,16.65
2016-06-13T03:35:15.175Z,16.65
2016-06-13T03:36:21.131Z,16.66
2016-06-13T03:37:15.127Z,16.59
2016-06-13T03:38:15.229Z,16.68
2016-06-13T03:39:17.988Z,16.64
2016-06-13T03:40:14.949Z,16.65
2016-06-13T03:41:18.598Z,16.66
2016-06-13T03:42:18.464Z,16.68
2016-06-13T03:43:15.094Z,16.66
2016-06-13T03:44:17.958Z,16.55
2016-06-13T03:45:20.760Z,16.66
2016-06-13T03:46:17.687Z,16.57
2016-06-13T03:47:17.645Z,16.62
2016-06-13T03:48:14.602Z,16.68
2016-06-13T03:49:14.527Z,16.57
2016-06-13T03:50:17.515Z,16.55
2016-06-13T03:51:14.457Z,16.54
2016-06-13T03:52:14.430Z,16.54
2016-06-13T03:53:14.354Z,16.51
2016-06-13T03:54:17.326Z,16.55
2016-06-13T03:55:14.266Z,16.65
2016-06-13T03:56:17.926Z,16.58
2016-06-13T03:57:17.273Z,16.65
2016-06-13T03:58:14.151Z,16.55
2016-06-13T03:59:14.091Z,16.61
2016-06-13T04:00:20.063Z,16.58
2016-06-13T04:01:17.004Z,16.61
2016-06-13T04:02:16.960Z,16.59
2016-06-13T04:03:13.901Z,16.62
2016-06-13T04:04:14.059Z,16.59
2016-06-13T04:05:16.798Z,16.55
2016-06-13T04:06:13.769Z,16.55
2016-06-13T04:07:16.554Z,16.49
2016-06-13T04:08:16.682Z,16.51
2016-06-13T04:09:16.824Z,16.55
2016-06-13T04:10:16.453Z,16.49
2016-06-13T04:11:13.535Z,16.46
2016-06-13T04:12:14.006Z,16.49
2016-06-13T04:13:13.666Z,16.57
2016-06-13T04:14:13.403Z,16.54
2016-06-13T04:15:13.343Z,16.65
2016-06-13T04:16:13.301Z,16.62
2016-06-13T04:17:13.256Z,16.69
2016-06-13T04:18:13.415Z,16.68
2016-06-13T04:19:13.231Z,16.69
2016-06-13T04:20:13.109Z,16.65
2016-06-13T04:21:13.283Z,16.65
2016-06-13T04:22:13.021Z,16.61
2016-06-13T04:23:16.055Z,16.61
2016-06-13T04:24:12.918Z,16.57
2016-06-13T04:25:16.374Z,16.58
2016-06-13T04:26:12.845Z,16.51
2016-06-13T04:27:18.818Z,16.55
2016-06-13T04:28:18.774Z,16.66
2016-06-13T04:29:15.699Z,16.51
2016-06-13T04:30:12.702Z,16.57
2016-06-13T04:31:12.612Z,16.64
2016-06-13T04:32:15.552Z,16.57
2016-06-13T04:33:15.523Z,16.55
2016-06-13T04:34:12.667Z,16.51
2016-06-13T04:35:12.420Z,16.58
2016-06-13T04:36:15.377Z,16.54
2016-06-13T04:37:12.332Z,16.54
2016-06-13T04:38:12.493Z,16.51
2016-06-13T04:39:15.230Z,16.62
2016-06-13T04:40:12.170Z,16.65
2016-06-13T04:41:12.127Z,16.58
2016-06-13T04:42:15.348Z,16.65
2016-06-13T04:43:15.070Z,16.57
2016-06-13T04:44:12.012Z,16.61
2016-06-13T04:45:14.982Z,16.59
2016-06-13T04:46:14.892Z,16.62
2016-06-13T04:47:17.896Z,16.61
2016-06-13T04:48:15.241Z,16.61
2016-06-13T04:49:14.776Z,16.62
2016-06-13T04:50:11.732Z,16.58
2016-06-13T04:51:11.673Z,16.58
2016-06-13T04:52:14.661Z,16.66
2016-06-13T04:53:11.898Z,16.69
2016-06-13T04:54:17.542Z,16.66
2016-06-13T04:55:14.498Z,16.62
2016-06-13T04:56:11.454Z,16.74
2016-06-13T04:57:11.567Z,16.73
2016-06-13T04:58:11.367Z,16.84
2016-06-13T04:59:11.307Z,16.77
2016-06-13T05:00:11.247Z,16.83
2016-06-13T05:01:11.407Z,16.82
2016-06-13T05:02:14.160Z,16.92
2016-06-13T05:03:11.101Z,16.91
2016-06-13T05:04:11.088Z,16.84
2016-06-13T05:05:11.231Z,17.01
2016-06-13T05:06:10.985Z,16.91
2016-06-13T05:07:11.425Z,16.89
2016-06-13T05:08:13.897Z,17.05
2016-06-13T05:09:13.853Z,17.02
2016-06-13T05:10:13.997Z,16.99
2016-06-13T05:11:19.765Z,16.97
2016-06-13T05:12:10.737Z,16.99
2016-06-13T05:13:13.865Z,17.01
2016-06-13T05:14:13.635Z,17.05
2016-06-13T05:15:10.560Z,17.07
2016-06-13T05:16:10.530Z,16.98
2016-06-13T05:17:13.472Z,17.04
2016-06-13T05:18:13.428Z,17.07
2016-06-13T05:19:16.384Z,17.13
2016-06-13T05:20:28.387Z,17.12
2016-06-13T05:21:11.281Z,17.05
2016-06-13T05:22:13.253Z,17.07
2016-06-13T05:23:10.037Z,17.05
2016-06-13T05:24:13.071Z,17.05
2016-06-13T05:25:13.105Z,17.19
2016-06-13T05:26:10.062Z,17.2
2016-06-13T05:27:13.019Z,17.19
2016-06-13T05:28:12.817Z,17.2
2016-06-13T05:29:12.945Z,17.17
2016-06-13T05:30:10.074Z,17.23
2016-06-13T05:31:09.656Z,17.2
2016-06-13T05:32:10.580Z,17.19
2016-06-13T05:33:09.724Z,17.12
2016-06-13T05:34:09.680Z,17.19
2016-06-13T05:35:09.855Z,17.19
2016-06-13T05:36:12.577Z,17.09
2016-06-13T05:37:12.783Z,17.12
2016-06-13T05:38:12.505Z,17.04
2016-06-13T05:39:09.680Z,17.05
2016-06-13T05:40:09.417Z,16.98
2016-06-13T05:41:09.576Z,16.94
2016-06-13T05:42:09.721Z,16.98
2016-06-13T05:43:12.396Z,16.89
2016-06-13T05:44:09.227Z,16.94
2016-06-13T05:45:09.042Z,16.89
2016-06-13T05:46:09.327Z,16.98
2016-06-13T05:47:08.923Z,16.86
2016-06-13T05:48:09.176Z,17.01
2016-06-13T05:49:08.836Z,16.98
2016-06-13T05:50:08.964Z,17.09
2016-06-13T05:51:08.904Z,17.05
2016-06-13T05:52:08.860Z,17.12
2016-06-13T05:53:08.801Z,17.16
2016-06-13T05:54:11.773Z,17.2
2016-06-13T05:55:08.917Z,17.2
2016-06-13T05:56:17.685Z,17.2
2016-06-13T05:57:09.173Z,17.22
2016-06-13T05:58:08.582Z,17.19
2016-06-13T05:59:20.538Z,17.23
2016-06-13T06:00:08.495Z,17.19
2016-06-13T06:01:08.450Z,17.28
2016-06-13T06:02:11.407Z,17.23
2016-06-13T06:03:08.754Z,17.24
2016-06-13T06:04:08.319Z,17.24
2016-06-13T06:05:08.338Z,17.23
2016-06-13T06:06:11.232Z,17.3
2016-06-13T06:07:11.187Z,17.3
2016-06-13T06:08:08.128Z,17.37
2016-06-13T06:09:11.162Z,17.38
2016-06-13T06:10:11.057Z,17.41
2016-06-13T06:11:17.029Z,17.32
2016-06-13T06:12:11.796Z,17.37
2016-06-13T06:13:10.956Z,17.32
2016-06-13T06:14:10.866Z,17.35
2016-06-13T06:15:10.837Z,17.28
2016-06-13T06:16:07.762Z,17.31
2016-06-13T06:17:11.156Z,17.34
2016-06-13T06:18:07.706Z,17.42
2016-06-13T06:19:07.834Z,17.41
2016-06-13T06:20:07.571Z,17.39
2016-06-13T06:21:10.574Z,17.34
2016-06-13T06:22:07.499Z,17.3
2016-06-13T06:23:10.456Z,17.3
2016-06-13T06:24:07.428Z,17.24
2016-06-13T06:25:07.367Z,17.3
2016-06-13T06:26:07.856Z,17.3
2016-06-13T06:27:13.499Z,17.32
2016-06-13T06:28:07.487Z,17.32
2016-06-13T06:29:07.037Z,17.3
2016-06-13T06:30:10.149Z,17.23
2016-06-13T06:31:07.480Z,17.34
2016-06-13T06:32:07.030Z,17.3
2016-06-13T06:33:07.033Z,17.3
2016-06-13T06:34:06.959Z,17.27
2016-06-13T06:35:06.899Z,17.27
2016-06-13T06:36:06.856Z,17.2
2016-06-13T06:37:06.795Z,17.27
2016-06-13T06:38:06.782Z,17.19
2016-06-13T06:39:06.740Z,17.17
2016-06-13T06:40:06.664Z,17.19
2016-06-13T06:41:09.855Z,17.22
2016-06-13T06:42:07.045Z,17.23
2016-06-13T06:43:06.408Z,17.2
2016-06-13T06:44:06.505Z,17.19
2016-06-13T06:45:06.445Z,17.19
2016-06-13T06:46:06.432Z,17.17
2016-06-13T06:47:12.405Z,17.12
2016-06-13T06:48:12.548Z,17.07
2016-06-13T06:49:09.286Z,17.07
2016-06-13T06:50:06.226Z,17.01
2016-06-13T06:51:06.167Z,17.09
2016-06-13T06:52:06.139Z,17.02
2016-06-13T06:53:09.079Z,16.94
2016-06-13T06:54:06.239Z,17.12
2016-06-13T06:55:05.991Z,17.12
2016-06-13T06:56:05.948Z,17.1
2016-06-13T06:57:09.232Z,17.22
2016-06-13T06:58:06.688Z,17.07
2016-06-13T06:59:14.847Z,17.12
2016-06-13T07:00:05.772Z,17.04
2016-06-13T07:01:08.573Z,16.97
2016-06-13T07:02:08.935Z,17.02
2016-06-13T07:03:11.828Z,16.82
2016-06-13T07:04:05.582Z,16.83
2016-06-13T07:05:05.554Z,16.91
2016-06-13T07:06:05.494Z,16.82
2016-06-13T07:07:11.466Z,16.91
2016-06-13T07:08:11.688Z,16.82
2016-06-13T07:09:05.847Z,16.86
2016-06-13T07:10:08.303Z,16.83
2016-06-13T07:11:08.244Z,16.83
2016-06-13T07:12:05.200Z,16.8
2016-06-13T07:13:11.125Z,16.8
2016-06-13T07:14:08.129Z,16.82
2016-06-13T07:15:05.287Z,16.76
2016-06-13T07:16:05.229Z,16.82
2016-06-13T07:17:05.232Z,16.76
2016-06-13T07:18:05.141Z,16.74
2016-06-13T07:19:05.378Z,16.65
2016-06-13T07:20:05.146Z,16.79
2016-06-13T07:21:04.822Z,16.74
2016-06-13T07:22:04.747Z,16.82
2016-06-13T07:23:04.703Z,16.82
2016-06-13T07:24:04.690Z,16.8
2016-06-13T07:25:04.616Z,16.84
2016-06-13T07:26:04.415Z,16.87
2016-06-13T07:27:10.965Z,16.99
2016-06-13T07:28:04.500Z,16.91
2016-06-13T07:29:07.425Z,16.95
2016-06-13T07:30:04.427Z,17.04
2016-06-13T07:31:04.352Z,17.02
2016-06-13T07:32:04.292Z,17.07
2016-06-13T07:33:04.452Z,17.12
2016-06-13T07:34:04.204Z,17.2
2016-06-13T07:35:04.177Z,17.2
2016-06-13T07:36:07.149Z,17.31
2016-06-13T07:37:03.933Z,17.35
2016-06-13T07:38:07.077Z,17.35
2016-06-13T07:39:04.205Z,17.37
2016-06-13T07:40:03.942Z,17.46
2016-06-13T07:41:03.915Z,17.5
2016-06-13T07:42:03.839Z,17.53
2016-06-13T07:43:07.233Z,17.42
2016-06-13T07:44:09.736Z,17.38
2016-06-13T07:45:03.723Z,17.38
2016-06-13T07:46:03.663Z,17.5
2016-06-13T07:47:06.620Z,17.44
2016-06-13T07:48:03.998Z,17.41
2016-06-13T07:49:06.392Z,17.42
2016-06-13T07:50:06.473Z,17.42
2016-06-13T07:51:03.273Z,17.41
2016-06-13T07:52:06.370Z,17.41
2016-06-13T07:53:04.061Z,17.46
2016-06-13T07:54:06.329Z,17.56
2016-06-13T07:55:03.144Z,17.66
2016-06-13T07:56:03.195Z,17.71
2016-06-13T07:57:03.214Z,17.86
2016-06-13T07:58:03.107Z,17.84
2016-06-13T07:59:03.064Z,17.95
2016-06-13T08:00:09.020Z,17.93
2016-06-13T08:01:02.992Z,17.95
2016-06-13T08:02:05.932Z,17.87
2016-06-13T08:03:02.904Z,17.91
2016-06-13T08:04:02.844Z,17.88
2016-06-13T08:05:02.800Z,17.91
2016-06-13T08:06:02.991Z,18
2016-06-13T08:07:02.713Z,17.94
2016-06-13T08:08:02.669Z,17.94
2016-06-13T08:09:02.610Z,17.95
2016-06-13T08:10:02.784Z,17.9
2016-06-13T08:11:02.522Z,17.95
2016-06-13T08:12:05.510Z,17.9
2016-06-13T08:13:05.857Z,17.95
2016-06-13T08:14:02.406Z,18
2016-06-13T08:15:02.331Z,17.93
2016-06-13T08:16:02.287Z,17.98
2016-06-13T08:17:05.431Z,17.87
2016-06-13T08:18:02.434Z,18.02
2016-06-13T08:19:05.375Z,17.98
2016-06-13T08:20:02.206Z,18.02
2016-06-13T08:21:05.054Z,18.06
2016-06-13T08:22:05.227Z,18.03
2016-06-13T08:23:02.185Z,18.05
2016-06-13T08:24:02.530Z,18.05
2016-06-13T08:25:01.877Z,18.05
2016-06-13T08:26:01.850Z,18.08
2016-06-13T08:27:01.837Z,18.06
2016-06-13T08:28:02.449Z,18.15
2016-06-13T08:29:01.812Z,18.21
2016-06-13T08:30:04.659Z,18.13
2016-06-13T08:31:01.630Z,18.16
2016-06-13T08:32:05.165Z,18.12
2016-06-13T08:33:04.621Z,18.12
2016-06-13T08:34:01.702Z,17.97
2016-06-13T08:35:04.736Z,17.95
2016-06-13T08:36:01.381Z,17.86
2016-06-13T08:37:01.384Z,17.87
2016-06-13T08:38:01.309Z,17.73
2016-06-13T08:39:01.248Z,17.76
2016-06-13T08:40:01.283Z,17.66
2016-06-13T08:41:01.161Z,17.69
2016-06-13T08:42:01.117Z,17.56
2016-06-13T08:43:01.089Z,17.54
2016-06-13T08:44:01.030Z,17.42
2016-06-13T08:45:00.986Z,17.42
2016-06-13T08:46:01.130Z,17.38
2016-06-13T08:47:03.914Z,17.37
2016-06-13T08:48:00.886Z,17.37
2016-06-13T08:49:03.827Z,17.38
2016-06-13T08:50:00.845Z,17.35
2016-06-13T08:51:00.723Z,17.37
2016-06-13T08:52:00.711Z,17.52
2016-06-13T08:53:02.136Z,17.56
2016-06-13T08:54:00.575Z,17.68
2016-06-13T08:55:00.392Z,17.75
2016-06-13T08:56:00.504Z,17.76
2016-06-13T08:57:00.492Z,17.97
2016-06-13T08:58:00.604Z,18.02
2016-06-13T08:59:00.201Z,18.03
2016-06-13T09:00:00.298Z,18.12
2016-06-13T09:01:00.333Z,18.19
2016-06-13T09:02:00.194Z,18.19
2016-06-13T09:03:03.182Z,18.18
2016-06-13T09:04:00.122Z,18.13
2016-06-13T09:05:00.126Z,18.18
2016-06-13T09:06:00.066Z,18.3
2016-06-13T09:07:00.054Z,18.27
2016-06-13T09:07:59.807Z,18.23
2016-06-13T09:08:59.966Z,18.21
2016-06-13T09:10:02.891Z,18.23
2016-06-13T09:10:59.815Z,18.34
2016-06-13T09:11:59.772Z,18.21
2016-06-13T09:13:00.119Z,18.28
2016-06-13T09:13:59.653Z,18.24
2016-06-13T09:14:59.656Z,18.28
2016-06-13T09:15:59.769Z,18.15
2016-06-13T09:17:02.928Z,18.15
2016-06-13T09:17:59.524Z,18.13
2016-06-13T09:18:59.622Z,18.21
2016-06-13T09:20:02.844Z,18.18
2016-06-13T09:20:59.346Z,18.18
2016-06-13T09:21:59.366Z,18.26
2016-06-13T09:22:59.259Z,18.21
2016-06-13T09:23:59.589Z,18.26
2016-06-13T09:24:59.437Z,18.36
2016-06-13T09:25:59.268Z,18.31
2016-06-13T09:26:59.193Z,18.27
2016-06-13T09:27:59.962Z,18.27
2016-06-13T09:28:59.075Z,18.36
2016-06-13T09:29:58.968Z,18.37
2016-06-13T09:30:58.908Z,18.39
2016-06-13T09:31:58.865Z,18.48
2016-06-13T09:32:59.025Z,18.48
2016-06-13T09:33:58.793Z,18.51
2016-06-13T09:34:58.796Z,18.58
2016-06-13T09:35:58.845Z,18.58
2016-06-13T09:37:02.005Z,18.55
2016-06-13T09:37:58.805Z,18.61
2016-06-13T09:38:58.589Z,18.55
2016-06-13T09:39:58.499Z,18.58
2016-06-13T09:40:58.455Z,18.57
2016-06-13T09:41:58.392Z,18.48
2016-06-13T09:43:01.852Z,18.41
2016-06-13T09:43:58.321Z,18.52
2016-06-13T09:44:58.309Z,18.45
2016-06-13T09:45:58.420Z,18.53
2016-06-13T09:46:58.157Z,18.49
2016-06-13T09:47:58.146Z,18.55
2016-06-13T09:48:58.086Z,18.51
2016-06-13T09:49:58.073Z,18.51
2016-06-13T09:50:58.530Z,18.46
2016-06-13T09:51:57.814Z,18.48
2016-06-13T09:52:57.973Z,18.49
2016-06-13T09:54:00.917Z,18.43
2016-06-13T09:54:57.823Z,18.46
2016-06-13T09:55:57.936Z,18.42
2016-06-13T09:57:00.832Z,18.41
2016-06-13T09:57:57.816Z,18.37
2016-06-13T09:58:57.664Z,18.42
2016-06-13T10:00:00.607Z,18.41
2016-06-13T10:00:57.528Z,18.43
2016-06-13T10:01:58.500Z,18.53
2016-06-13T10:02:57.489Z,18.52
2016-06-13T10:03:57.429Z,18.51
2016-06-13T10:04:57.369Z,18.55
2016-06-13T10:05:57.341Z,18.53
2016-06-13T10:06:57.344Z,18.6
2016-06-13T10:08:03.303Z,18.55
2016-06-13T10:08:57.210Z,18.51
2016-06-13T10:09:57.229Z,18.52
2016-06-13T10:10:57.122Z,18.43
2016-06-13T10:11:57.625Z,18.42
2016-06-13T10:12:57.535Z,18.43
2016-06-13T10:13:57.694Z,18.49
2016-06-13T10:14:57.009Z,18.27
2016-06-13T10:15:56.903Z,18.23
2016-06-13T10:16:56.844Z,18.09
2016-06-13T10:17:59.866Z,18.06
2016-06-13T10:18:56.959Z,17.93
2016-06-13T10:19:56.680Z,17.9
2016-06-13T10:20:56.715Z,17.76
2016-06-13T10:21:56.609Z,17.66
2016-06-13T10:22:56.612Z,17.63
2016-06-13T10:23:56.521Z,17.65
2016-06-13T10:24:56.463Z,17.57
2016-06-13T10:25:56.434Z,17.53
2016-06-13T10:26:56.593Z,17.6
2016-06-13T10:27:56.221Z,17.57
2016-06-13T10:28:56.303Z,17.76
2016-06-13T10:29:56.275Z,17.73
2016-06-13T10:30:56.527Z,17.88
2016-06-13T10:31:59.187Z,18.02
2016-06-13T10:32:56.127Z,17.93
2016-06-13T10:33:56.255Z,17.97
2016-06-13T10:34:56.040Z,18.05
2016-06-13T10:35:59.341Z,18.05
2016-06-13T10:36:55.968Z,18.05
2016-06-13T10:38:01.052Z,18.19
2016-06-13T10:38:59.005Z,18.21
2016-06-13T10:39:56.930Z,18.26
2016-06-13T10:40:55.745Z,18.41
2016-06-13T10:42:00.468Z,18.48
2016-06-13T10:42:59.190Z,18.57
2016-06-13T10:43:55.802Z,18.67
2016-06-13T10:44:58.570Z,18.64
2016-06-13T10:45:55.777Z,18.76
2016-06-13T10:46:55.483Z,18.81
2016-06-13T10:47:58.455Z,18.73
2016-06-13T10:48:55.645Z,18.79
2016-06-13T10:49:55.367Z,18.88
2016-06-13T10:50:55.464Z,18.82
2016-06-13T10:51:55.295Z,18.85
2016-06-13T10:52:55.392Z,18.89
2016-06-13T10:53:55.379Z,18.89
2016-06-13T10:54:58.194Z,18.92
2016-06-13T10:55:58.073Z,19.11
2016-06-13T10:56:55.295Z,19.07
2016-06-13T10:57:55.220Z,19.12
2016-06-13T10:58:57.989Z,19.15
2016-06-13T11:00:03.776Z,19.23
2016-06-13T11:00:54.932Z,19.29
2016-06-13T11:01:54.826Z,19.42
2016-06-13T11:02:54.766Z,19.53
2016-06-13T11:03:57.722Z,19.7
2016-06-13T11:04:57.663Z,19.79
2016-06-13T11:05:54.853Z,19.87
2016-06-13T11:06:57.639Z,19.9
2016-06-13T11:07:54.548Z,19.89
2016-06-13T11:08:54.488Z,19.96
2016-06-13T11:09:54.491Z,20.08
2016-06-13T11:10:54.432Z,20.04
2016-06-13T11:11:57.419Z,20.11
2016-06-13T11:12:54.907Z,20.26
2016-06-13T11:13:54.332Z,20.42
2016-06-13T11:15:08.431Z,20.52
2016-06-13T11:15:54.259Z,20.71
2016-06-13T11:16:54.137Z,20.85
2016-06-13T11:17:54.156Z,20.98
2016-06-13T11:18:57.050Z,21.08
2016-06-13T11:19:54.100Z,21.11
2016-06-13T11:20:56.979Z,21.13
2016-06-13T11:21:55.435Z,21.15
2016-06-13T11:22:53.906Z,21.01
2016-06-13T11:23:53.830Z,20.96
2016-06-13T11:24:53.772Z,20.9
2016-06-13T11:25:53.759Z,20.85
2016-06-13T11:26:53.715Z,20.8
2016-06-13T11:27:54.218Z,20.6
2016-06-13T11:28:54.440Z,20.64
2016-06-13T11:29:53.552Z,20.66
2016-06-13T11:30:53.821Z,20.75
2016-06-13T11:31:53.496Z,20.83
2016-06-13T11:32:53.499Z,20.7
2016-06-13T11:33:53.408Z,20.74
2016-06-13T11:34:53.428Z,20.82
2016-06-13T11:35:53.493Z,20.8
2016-06-13T11:36:53.262Z,20.8
2016-06-13T11:37:56.218Z,20.85
2016-06-13T11:38:53.424Z,20.82
2016-06-13T11:39:53.130Z,20.82
2016-06-13T11:40:53.086Z,20.78
2016-06-13T11:41:53.027Z,21
2016-06-13T11:42:52.842Z,21.11
2016-06-13T11:43:53.064Z,21.3
2016-06-13T11:44:53.115Z,21.32
2016-06-13T11:46:14.683Z,21.2
2016-06-13T11:47:02.417Z,21.13
2016-06-13T11:47:52.670Z,21.13
2016-06-13T11:48:52.751Z,21.32
2016-06-13T11:49:52.770Z,21.43
2016-06-13T11:50:52.710Z,21.51
2016-06-13T11:51:52.933Z,21.53
2016-06-13T11:52:52.608Z,21.56
2016-06-13T11:53:52.548Z,21.47
2016-06-13T11:54:52.567Z,21.35
2016-06-13T11:55:52.476Z,21.37
2016-06-13T11:56:52.432Z,21.32
2016-06-13T11:57:52.999Z,21.32
2016-06-13T11:58:52.376Z,21.5
2016-06-13T11:59:52.254Z,21.51
2016-06-13T12:00:55.616Z,21.58
2016-06-13T12:01:52.370Z,21.65
2016-06-13T12:02:55.139Z,21.59
2016-06-13T12:03:52.078Z,21.58
2016-06-13T12:04:52.457Z,21.59
2016-06-13T12:05:55.022Z,21.54
2016-06-13T12:06:51.947Z,21.59
2016-06-13T12:07:52.419Z,21.62
2016-06-13T12:08:51.844Z,21.6
2016-06-13T12:09:52.004Z,21.59
2016-06-13T12:11:00.803Z,21.66
2016-06-13T12:11:54.978Z,21.63
2016-06-13T12:12:51.716Z,21.6
2016-06-13T12:13:56.094Z,21.65
2016-06-13T12:14:54.831Z,21.78
2016-06-13T12:15:51.616Z,21.83
2016-06-13T12:16:51.587Z,21.84
2016-06-13T12:17:51.668Z,21.94
2016-06-13T12:18:51.422Z,21.83
2016-06-13T12:19:51.441Z,21.81
2016-06-13T12:20:54.194Z,21.84
2016-06-13T12:21:51.306Z,21.78
2016-06-13T12:22:51.262Z,21.85
2016-06-13T12:23:51.375Z,21.81
2016-06-13T12:24:51.175Z,21.83
2016-06-13T12:25:51.538Z,21.89
2016-06-13T12:26:51.087Z,22.1
2016-06-13T12:27:51.059Z,22.15
2016-06-13T12:28:54.453Z,22.22
2016-06-13T12:29:50.972Z,22.43
2016-06-13T12:30:53.944Z,22.52
2016-06-13T12:31:51.336Z,22.53
2016-06-13T12:32:54.200Z,22.56
2016-06-13T12:33:51.140Z,22.62
2016-06-13T12:34:50.981Z,22.65
2016-06-13T12:35:50.837Z,22.63
2016-06-13T12:36:50.833Z,22.63
2016-06-13T12:37:50.799Z,22.65
2016-06-13T12:38:51.010Z,22.56
2016-06-13T12:39:50.606Z,22.47
2016-06-13T12:40:50.749Z,22.47
2016-06-13T12:41:50.720Z,22.41
2016-06-13T12:42:50.535Z,22.44
2016-06-13T12:43:50.967Z,22.37
2016-06-13T12:44:54.256Z,22.18
2016-06-13T12:45:50.576Z,22.03
2016-06-13T12:46:50.600Z,21.99
2016-06-13T12:47:50.780Z,21.85
2016-06-13T12:48:50.708Z,21.75
2016-06-13T12:49:56.275Z,21.68
2016-06-13T12:50:50.358Z,21.6
2016-06-13T12:51:50.520Z,21.56
2016-06-13T12:52:50.290Z,21.47
2016-06-13T12:53:50.247Z,21.35
2016-06-13T12:54:50.439Z,21.29